createdAt,value
2022-12-12T00:00:17.297Z,69.49
2022-12-12T00:02:44.357Z,69.88
2022-12-12T00:05:15.266Z,70.05
2022-12-12T00:07:41.938Z,69.16
2022-12-12T00:10:10.548Z,69.03
2022-12-12T00:12:37.895Z,69.46
2022-12-12T00:15:05.172Z,69.36
2022-12-12T00:17:31.741Z,69.11
2022-12-12T00:20:00.622Z,68.70
2022-12-12T00:22:27.417Z,69.08
2022-12-12T00:24:57.462Z,68.62
2022-12-12T00:27:24.110Z,68.96
2022-12-12T00:29:56.924Z,69.00
2022-12-12T00:32:25.203Z,69.13
2022-12-12T00:34:51.736Z,69.04
2022-12-12T00:37:18.233Z,68.76
2022-12-12T00:39:45.037Z,69.35
2022-12-12T00:42:14.746Z,69.18
2022-12-12T00:44:43.185Z,69.47
2022-12-12T00:47:14.273Z,68.88
2022-12-12T00:49:43.671Z,68.64
2022-12-12T00:52:14.345Z,69.61
2022-12-12T00:54:41.296Z,69.65
2022-12-12T00:57:08.154Z,69.28
2022-12-12T00:59:36.003Z,69.33
2022-12-12T01:02:03.317Z,69.50
2022-12-12T01:04:31.298Z,69.64
2022-12-12T01:07:02.465Z,69.75
2022-12-12T01:09:31.261Z,69.15
2022-12-12T01:11:58.331Z,69.04
2022-12-12T01:14:25.253Z,69.03
2022-12-12T01:16:52.169Z,69.32
2022-12-12T01:19:19.131Z,69.81
2022-12-12T01:21:45.640Z,69.36
2022-12-12T01:24:12.645Z,69.29
2022-12-12T01:26:42.062Z,70.11
2022-12-12T01:29:09.515Z,70.01
2022-12-12T01:31:36.267Z,69.88
2022-12-12T01:34:02.891Z,69.48
2022-12-12T01:36:30.075Z,69.54
2022-12-12T01:38:59.171Z,69.05
2022-12-12T01:41:28.194Z,69.44
2022-12-12T01:43:55.510Z,70.04
2022-12-12T01:46:33.943Z,70.38
2022-12-12T01:49:13.380Z,69.60
2022-12-12T01:51:42.953Z,69.92
2022-12-12T01:54:17.161Z,69.95
2022-12-12T01:56:46.932Z,70.56
2022-12-12T01:59:16.458Z,70.44
2022-12-12T02:01:43.579Z,70.15
2022-12-12T02:04:12.439Z,70.45
2022-12-12T02:06:40.514Z,69.91
2022-12-12T02:09:13.032Z,69.91
2022-12-12T02:11:46.316Z,70.27
2022-12-12T02:14:19.431Z,70.64
2022-12-12T02:17:10.948Z,70.31
2022-12-12T02:20:25.462Z,70.58
2022-12-12T02:23:11.855Z,70.18
2022-12-12T02:25:53.934Z,70.64
2022-12-12T02:28:23.441Z,71.20
2022-12-12T02:31:14.092Z,71.30
2022-12-12T02:34:16.121Z,71.80
2022-12-12T02:36:56.685Z,71.15
2022-12-12T02:39:32.807Z,71.55
2022-12-12T02:42:04.892Z,71.53
2022-12-12T02:44:42.200Z,71.75
2022-12-12T02:47:18.563Z,71.28
2022-12-12T02:49:54.028Z,71.34
2022-12-12T02:52:24.143Z,72.01
2022-12-12T02:54:51.064Z,72.39
2022-12-12T02:57:24.362Z,71.80
2022-12-12T02:59:53.540Z,71.92
2022-12-12T03:02:40.198Z,71.92
2022-12-12T03:06:01.148Z,72.13
2022-12-12T03:08:53.114Z,71.69
2022-12-12T03:11:55.256Z,70.92
2022-12-12T03:14:38.205Z,71.56
2022-12-12T03:17:07.664Z,72.35
2022-12-12T03:19:57.299Z,71.83
2022-12-12T03:22:47.107Z,71.42
2022-12-12T03:25:16.179Z,72.34
2022-12-12T03:27:56.966Z,73.11
2022-12-12T03:30:23.847Z,73.90
2022-12-12T03:33:15.518Z,74.19
2022-12-12T03:35:46.888Z,74.67
2022-12-12T03:38:25.290Z,75.61
2022-12-12T03:40:58.986Z,76.15
2022-12-12T03:43:29.638Z,76.93
2022-12-12T03:46:09.245Z,76.22
2022-12-12T03:48:42.878Z,75.85
2022-12-12T03:51:22.859Z,74.87
2022-12-12T03:54:14.412Z,74.92
2022-12-12T03:56:49.818Z,74.71
2022-12-12T03:59:40.935Z,74.67
2022-12-12T04:02:16.856Z,74.18
2022-12-12T04:04:56.347Z,73.77
2022-12-12T04:07:28.748Z,73.39
2022-12-12T04:10:13.963Z,73.32
2022-12-12T04:13:01.313Z,73.77
2022-12-12T04:15:48.026Z,73.53
2022-12-12T04:18:36.080Z,73.77
2022-12-12T04:21:49.073Z,73.95
2022-12-12T04:24:35.156Z,74.56
2022-12-12T04:27:21.792Z,74.55
2022-12-12T04:29:53.785Z,73.80
2022-12-12T04:32:28.907Z,74.02
2022-12-12T04:35:16.994Z,74.29
2022-12-12T04:37:51.165Z,73.36
2022-12-12T04:40:29.012Z,72.37
2022-12-12T04:43:16.651Z,73.90
2022-12-12T04:45:59.474Z,72.76
2022-12-12T04:49:00.767Z,72.73
2022-12-12T04:51:33.863Z,72.01
2022-12-12T04:54:10.232Z,71.81
2022-12-12T04:56:40.325Z,71.18
2022-12-12T04:59:09.220Z,72.53
2022-12-12T05:01:53.204Z,72.16
2022-12-12T05:04:33.476Z,72.69
2022-12-12T05:07:10.816Z,72.50
2022-12-12T05:09:37.689Z,72.50
2022-12-12T05:12:05.178Z,72.73
2022-12-12T05:14:32.184Z,72.39
2022-12-12T05:17:13.856Z,72.72
2022-12-12T05:19:40.385Z,73.19
2022-12-12T05:22:06.982Z,73.49
2022-12-12T05:24:33.699Z,73.40
2022-12-12T05:27:00.843Z,73.55
2022-12-12T05:29:27.396Z,74.57
2022-12-12T05:31:54.156Z,75.05
2022-12-12T05:34:20.751Z,75.11
2022-12-12T05:36:47.945Z,74.39
2022-12-12T05:39:14.653Z,74.25
2022-12-12T05:41:41.918Z,73.27
2022-12-12T05:44:08.837Z,73.23
2022-12-12T05:46:36.297Z,74.37
2022-12-12T05:49:03.293Z,73.90
2022-12-12T05:51:29.845Z,73.65
2022-12-12T05:53:57.221Z,73.83
2022-12-12T05:56:24.066Z,73.88
2022-12-12T05:58:50.776Z,74.70
2022-12-12T06:01:17.785Z,75.17
2022-12-12T06:03:44.350Z,74.62
2022-12-12T06:06:12.199Z,74.78
2022-12-12T06:08:39.442Z,74.72
2022-12-12T06:11:09.419Z,75.01
2022-12-12T06:13:37.564Z,74.25
2022-12-12T06:16:09.266Z,74.15
2022-12-12T06:18:39.132Z,74.62
2022-12-12T06:21:08.840Z,75.05
2022-12-12T06:23:37.671Z,74.64
2022-12-12T06:26:06.602Z,74.29
2022-12-12T06:28:34.118Z,74.22
2022-12-12T06:31:00.835Z,74.32
2022-12-12T06:33:29.195Z,74.79
2022-12-12T06:36:02.439Z,75.10
2022-12-12T06:38:32.334Z,74.67
2022-12-12T06:41:00.224Z,74.40
2022-12-12T06:43:26.952Z,73.98
2022-12-12T06:46:02.102Z,75.65
2022-12-12T06:48:30.034Z,75.51
2022-12-12T06:50:56.811Z,75.54
2022-12-12T06:53:23.646Z,75.08
2022-12-12T06:55:50.397Z,75.37
2022-12-12T06:58:17.013Z,75.71
2022-12-12T07:00:43.731Z,76.13
2022-12-12T07:03:13.700Z,75.71
2022-12-12T07:05:40.788Z,75.73
2022-12-12T07:08:08.779Z,75.63
2022-12-12T07:10:36.208Z,76.07
2022-12-12T07:13:02.865Z,76.00
2022-12-12T07:15:30.514Z,75.85
2022-12-12T07:17:57.168Z,75.62
2022-12-12T07:20:24.302Z,75.02
2022-12-12T07:22:50.950Z,74.94
2022-12-12T07:25:19.033Z,75.04
2022-12-12T07:27:46.149Z,75.40
2022-12-12T07:30:13.690Z,76.05
2022-12-12T07:32:40.208Z,76.50
2022-12-12T07:35:07.367Z,76.90
2022-12-12T07:37:35.440Z,76.93
2022-12-12T07:40:01.953Z,77.86
2022-12-12T07:42:28.649Z,78.25
2022-12-12T07:44:55.126Z,78.59
2022-12-12T07:47:22.121Z,79.70
2022-12-12T07:49:48.693Z,80.26
2022-12-12T07:52:15.440Z,80.53
2022-12-12T07:54:44.286Z,79.58
2022-12-12T07:57:10.827Z,80.89
2022-12-12T07:59:37.481Z,80.99
2022-12-12T08:02:03.959Z,80.41
2022-12-12T08:04:31.069Z,81.08
2022-12-12T08:07:04.053Z,81.67
2022-12-12T08:09:33.730Z,81.98
2022-12-12T08:12:04.232Z,81.42
2022-12-12T08:14:33.038Z,81.63
2022-12-12T08:17:01.789Z,81.67
2022-12-12T08:19:33.351Z,81.90
2022-12-12T08:21:59.877Z,82.15
2022-12-12T08:24:28.268Z,82.93
2022-12-12T08:26:54.895Z,83.06
2022-12-12T08:29:22.600Z,82.69
2022-12-12T08:31:49.990Z,82.60
2022-12-12T08:34:17.848Z,82.34
2022-12-12T08:36:45.538Z,82.20
2022-12-12T08:39:16.128Z,81.58
2022-12-12T08:41:49.060Z,81.70
2022-12-12T08:44:18.760Z,80.89
2022-12-12T08:46:45.959Z,81.28
2022-12-12T08:49:13.005Z,80.36
2022-12-12T08:51:43.011Z,80.74
2022-12-12T08:54:11.859Z,80.51
2022-12-12T08:56:40.212Z,81.03
2022-12-12T08:59:07.402Z,81.23
2022-12-12T09:01:34.459Z,80.72
2022-12-12T09:04:03.503Z,80.15
2022-12-12T09:06:34.162Z,80.05
2022-12-12T09:09:00.957Z,80.07
2022-12-12T09:11:29.087Z,79.83
2022-12-12T09:13:55.592Z,79.80
2022-12-12T09:16:25.475Z,78.82
2022-12-12T09:18:56.423Z,79.18
2022-12-12T09:21:24.324Z,79.42
2022-12-12T09:23:51.632Z,78.78
2022-12-12T09:26:18.227Z,79.08
2022-12-12T09:28:45.687Z,78.45
2022-12-12T09:31:14.924Z,77.66
2022-12-12T09:33:43.396Z,77.59
2022-12-12T09:36:15.398Z,77.02
2022-12-12T09:38:44.263Z,76.69
2022-12-12T09:41:16.156Z,76.77
2022-12-12T09:44:15.991Z,76.50
2022-12-12T09:46:49.073Z,76.04
2022-12-12T09:49:27.838Z,75.89
2022-12-12T09:51:56.334Z,75.59
2022-12-12T09:54:25.602Z,75.19
2022-12-12T09:57:17.604Z,73.57
2022-12-12T10:00:04.678Z,73.12
2022-12-12T10:02:53.756Z,72.15
2022-12-12T10:05:39.117Z,72.24
2022-12-12T10:08:24.144Z,71.27
2022-12-12T10:11:04.167Z,71.05
2022-12-12T10:13:33.510Z,70.69
2022-12-12T10:16:08.845Z,71.16
2022-12-12T10:18:41.175Z,70.69
2022-12-12T10:21:18.910Z,71.05
2022-12-12T10:23:59.344Z,71.59
2022-12-12T10:26:28.704Z,72.00
2022-12-12T10:29:15.374Z,70.90
2022-12-12T10:31:58.800Z,70.32
2022-12-12T10:34:40.442Z,68.79
2022-12-12T10:37:50.565Z,67.80
2022-12-12T10:40:58.013Z,67.82
2022-12-12T10:43:40.935Z,68.55
2022-12-12T10:46:17.181Z,69.17
2022-12-12T10:48:45.928Z,70.16
2022-12-12T10:51:15.350Z,72.42
2022-12-12T10:53:42.230Z,74.03
2022-12-12T10:56:30.125Z,74.46
2022-12-12T10:59:01.510Z,73.89
2022-12-12T11:04:22.072Z,75.46
2022-12-12T11:06:54.874Z,76.05
2022-12-12T11:09:32.580Z,77.46
2022-12-12T11:12:02.234Z,77.72
2022-12-12T11:14:37.203Z,78.27
2022-12-12T11:17:31.198Z,78.75
2022-12-12T11:20:00.964Z,78.38
2022-12-12T11:22:33.748Z,77.03
2022-12-12T11:25:01.129Z,77.30
2022-12-12T11:28:07.046Z,77.93
2022-12-12T11:30:39.123Z,77.91
2022-12-12T11:33:15.279Z,76.80
2022-12-12T11:35:47.428Z,76.00
2022-12-12T11:38:21.138Z,75.85
2022-12-12T11:41:04.711Z,75.06
2022-12-12T11:43:37.293Z,74.39
2022-12-12T11:46:08.838Z,74.59
2022-12-12T11:48:42.848Z,73.46
2022-12-12T11:51:12.290Z,72.99
2022-12-12T11:53:47.204Z,73.02
2022-12-12T11:56:33.043Z,73.52
2022-12-12T11:59:20.032Z,73.94
2022-12-12T12:02:18.567Z,74.05
2022-12-12T12:05:06.419Z,73.86
2022-12-12T12:07:43.709Z,74.23
2022-12-12T12:10:24.382Z,74.75
2022-12-12T12:13:09.163Z,74.41
2022-12-12T12:16:08.060Z,75.26
2022-12-12T12:18:58.665Z,75.15
2022-12-12T12:21:42.154Z,75.21
2022-12-12T12:24:32.539Z,76.19
2022-12-12T12:27:12.044Z,75.75
2022-12-12T12:30:03.285Z,75.48
2022-12-12T12:33:03.754Z,74.81
2022-12-12T12:35:37.900Z,75.47
2022-12-12T12:38:22.292Z,75.50
2022-12-12T12:41:07.732Z,74.74
2022-12-12T12:43:56.455Z,75.40
2022-12-12T12:47:09.181Z,74.34
2022-12-12T12:49:49.626Z,74.55
2022-12-12T12:52:37.557Z,74.36
2022-12-12T12:55:13.940Z,74.34
2022-12-12T12:57:44.189Z,73.05
2022-12-12T13:00:20.964Z,72.81
2022-12-12T13:03:00.201Z,72.84
2022-12-12T13:05:27.220Z,73.21
2022-12-12T13:07:58.801Z,72.37
2022-12-12T13:10:30.939Z,71.88
2022-12-12T13:13:31.301Z,71.66
2022-12-12T13:16:04.913Z,71.44
2022-12-12T13:18:45.038Z,72.07
2022-12-12T13:21:32.264Z,71.57
2022-12-12T13:24:15.048Z,71.06
2022-12-12T13:27:04.476Z,71.07
2022-12-12T13:29:49.238Z,70.79
2022-12-12T13:32:56.014Z,69.73
2022-12-12T13:35:38.275Z,70.48
2022-12-12T13:38:06.871Z,71.23
2022-12-12T13:40:43.456Z,70.96
2022-12-12T13:43:39.490Z,72.17
2022-12-12T13:46:30.695Z,73.53
2022-12-12T13:49:06.270Z,73.31
2022-12-12T13:51:40.930Z,72.55
2022-12-12T13:54:12.788Z,72.40
2022-12-12T13:56:49.790Z,72.79
2022-12-12T13:59:27.821Z,72.20
2022-12-12T14:02:03.401Z,72.02
2022-12-12T14:04:33.562Z,71.65
2022-12-12T14:07:22.801Z,72.00
2022-12-12T14:09:59.417Z,71.09
2022-12-12T14:12:32.132Z,72.11
2022-12-12T14:15:08.521Z,72.12
2022-12-12T14:17:42.751Z,72.06
2022-12-12T14:20:29.474Z,72.12
2022-12-12T14:22:56.210Z,71.93
2022-12-12T14:25:37.212Z,71.53
2022-12-12T14:28:17.953Z,70.38
2022-12-12T14:30:48.707Z,69.87
2022-12-12T14:33:19.737Z,70.03
2022-12-12T14:36:00.608Z,70.33
2022-12-12T14:38:40.455Z,69.72
2022-12-12T14:41:15.542Z,69.71
2022-12-12T14:44:38.017Z,70.07
2022-12-12T14:46:43.376Z,70.62
2022-12-12T14:49:17.604Z,70.59
2022-12-12T14:51:47.294Z,70.67
2022-12-12T14:54:20.193Z,71.01
2022-12-12T14:56:54.582Z,70.30
2022-12-12T14:59:26.215Z,69.98
2022-12-12T15:01:59.459Z,70.73
2022-12-12T15:04:33.000Z,70.50
2022-12-12T15:07:01.988Z,70.56
2022-12-12T15:09:35.518Z,70.71
2022-12-12T15:12:12.701Z,71.08
2022-12-12T15:14:49.891Z,71.62
2022-12-12T15:17:22.894Z,72.25
2022-12-12T15:19:49.636Z,72.88
2022-12-12T15:22:33.992Z,72.78
2022-12-12T15:25:03.891Z,72.75
2022-12-12T15:27:37.317Z,72.98
2022-12-12T15:30:37.316Z,72.53
2022-12-12T15:33:08.399Z,73.03
2022-12-12T15:35:35.211Z,72.16
2022-12-12T15:38:07.069Z,72.25
2022-12-12T15:40:36.280Z,72.07
2022-12-12T15:43:10.417Z,72.27
2022-12-12T15:45:43.735Z,72.12
2022-12-12T15:48:18.019Z,72.49
2022-12-12T15:50:44.752Z,71.84
2022-12-12T15:53:22.622Z,72.06
2022-12-12T15:56:19.380Z,72.36
2022-12-12T15:58:49.115Z,72.12
2022-12-12T16:01:24.147Z,72.54
2022-12-12T16:04:00.999Z,73.00
2022-12-12T16:06:34.771Z,72.73
2022-12-12T16:09:07.175Z,73.12
2022-12-12T16:11:47.815Z,73.51
2022-12-12T16:14:40.598Z,73.27
2022-12-12T16:17:25.846Z,73.17
2022-12-12T16:20:10.048Z,73.32
2022-12-12T16:22:40.219Z,72.96
2022-12-12T16:25:28.540Z,72.58
2022-12-12T16:28:12.715Z,72.73
2022-12-12T16:30:41.210Z,73.23
2022-12-12T16:33:26.630Z,72.87
2022-12-12T16:35:53.246Z,72.98
2022-12-12T16:38:20.270Z,73.62
2022-12-12T16:40:52.591Z,73.36
2022-12-12T16:43:22.689Z,73.64
2022-12-12T16:45:55.344Z,73.29
2022-12-12T16:48:26.166Z,73.40
2022-12-12T16:51:01.744Z,73.32
2022-12-12T16:53:30.485Z,73.58
2022-12-12T16:56:00.066Z,73.67
2022-12-12T16:58:27.047Z,73.90
2022-12-12T17:00:53.848Z,74.26
2022-12-12T17:03:24.216Z,74.35
2022-12-12T17:05:51.332Z,73.92
2022-12-12T17:08:20.086Z,74.32
2022-12-12T17:10:51.389Z,74.05
2022-12-12T17:13:37.699Z,75.15
2022-12-12T17:19:37.365Z,75.14
2022-12-12T17:22:04.253Z,75.77
2022-12-12T17:24:43.224Z,75.15
2022-12-12T17:27:09.886Z,74.28
2022-12-12T17:29:36.532Z,74.77
2022-12-12T17:32:06.351Z,73.99
2022-12-12T17:34:33.749Z,74.86
2022-12-12T17:37:02.505Z,74.21
2022-12-12T17:39:29.470Z,74.79
2022-12-12T17:41:56.172Z,75.12
2022-12-12T17:44:24.767Z,75.32
2022-12-12T17:46:53.496Z,74.96
2022-12-12T17:49:20.090Z,74.80
2022-12-12T17:51:46.775Z,74.81
2022-12-12T17:54:17.992Z,75.55
2022-12-12T17:56:44.532Z,75.32
2022-12-12T17:59:11.552Z,75.74
2022-12-12T18:01:39.613Z,76.35
2022-12-12T18:04:06.834Z,76.04
2022-12-12T18:06:37.576Z,75.77
2022-12-12T18:09:06.617Z,75.44
2022-12-12T18:11:38.053Z,75.08
2022-12-12T18:14:09.477Z,75.50
2022-12-12T18:16:37.352Z,75.27
2022-12-12T18:19:09.933Z,75.90
2022-12-12T18:22:00.905Z,75.56
2022-12-12T18:24:30.230Z,75.86
2022-12-12T18:26:59.118Z,76.31
2022-12-12T18:29:26.778Z,75.97
2022-12-12T18:31:55.313Z,75.98
2022-12-12T18:34:22.358Z,75.91
2022-12-12T18:36:50.485Z,76.60
2022-12-12T18:39:17.452Z,76.18
2022-12-12T18:41:44.062Z,75.49
2022-12-12T18:44:14.916Z,75.91
2022-12-12T18:46:43.796Z,75.39
2022-12-12T18:49:16.136Z,75.82
2022-12-12T18:51:45.187Z,75.26
2022-12-12T18:54:21.614Z,75.49
2022-12-12T18:56:48.734Z,75.88
2022-12-12T18:59:16.290Z,76.54
2022-12-12T19:01:44.230Z,75.45
2022-12-12T19:04:14.048Z,75.52
2022-12-12T19:06:43.576Z,75.57
2022-12-12T19:09:17.265Z,76.06
2022-12-12T19:11:47.314Z,75.36
2022-12-12T19:14:16.156Z,75.38
2022-12-12T19:16:43.770Z,75.39
2022-12-12T19:19:12.317Z,75.25
2022-12-12T19:21:40.354Z,75.12
2022-12-12T19:24:12.804Z,76.31
2022-12-12T19:26:42.867Z,76.47
2022-12-12T19:29:16.793Z,75.57
2022-12-12T19:31:45.831Z,75.82
2022-12-12T19:34:15.996Z,75.96
2022-12-12T19:36:44.781Z,75.92
2022-12-12T19:39:13.000Z,75.12
2022-12-12T19:41:40.652Z,75.29
2022-12-12T19:44:12.913Z,75.59
2022-12-12T19:46:43.010Z,74.64
2022-12-12T19:49:13.903Z,74.85
2022-12-12T19:51:42.646Z,75.38
2022-12-12T19:54:17.414Z,75.15
2022-12-12T19:56:44.249Z,75.37
2022-12-12T19:59:13.916Z,74.68
2022-12-12T20:01:43.701Z,74.62
2022-12-12T20:04:30.451Z,74.35
2022-12-12T20:06:59.350Z,74.72
2022-12-12T20:09:33.222Z,75.03
2022-12-12T20:12:03.105Z,74.33
2022-12-12T20:14:32.330Z,74.86
2022-12-12T20:17:05.476Z,75.12
2022-12-12T20:19:38.679Z,75.57
2022-12-12T20:22:08.047Z,74.82
2022-12-12T20:24:34.893Z,74.62
2022-12-12T20:27:03.884Z,74.49
2022-12-12T20:29:31.680Z,75.00
2022-12-12T20:32:00.631Z,75.31
2022-12-12T20:34:28.352Z,75.48
2022-12-12T20:36:58.746Z,75.63
2022-12-12T20:39:28.329Z,75.01
2022-12-12T20:41:56.600Z,74.95
2022-12-12T20:44:25.357Z,74.77
2022-12-12T20:46:52.642Z,75.25
2022-12-12T20:49:22.397Z,74.78
2022-12-12T20:51:57.645Z,74.85
2022-12-12T20:54:27.558Z,75.73
2022-12-12T20:56:58.385Z,75.94
2022-12-12T20:59:28.269Z,75.90
2022-12-12T21:01:55.187Z,76.05
2022-12-12T21:04:24.289Z,75.58
2022-12-12T21:06:51.882Z,76.25
2022-12-12T21:09:25.721Z,76.50
2022-12-12T21:11:59.619Z,75.65
2022-12-12T21:14:32.956Z,75.77
2022-12-12T21:16:59.724Z,75.71
2022-12-12T21:19:26.606Z,75.64
2022-12-12T21:21:53.456Z,76.06
2022-12-12T21:24:20.696Z,75.85
2022-12-12T21:26:48.518Z,75.68
2022-12-12T21:29:16.287Z,74.39
2022-12-12T21:31:50.785Z,74.15
2022-12-12T21:34:20.350Z,72.21
2022-12-12T21:36:52.554Z,71.86
2022-12-12T21:39:22.341Z,71.31
2022-12-12T21:41:49.620Z,72.09
2022-12-12T21:44:16.530Z,71.64
2022-12-12T21:46:46.215Z,72.28
2022-12-12T21:49:30.880Z,72.83
2022-12-12T21:52:03.691Z,73.49
2022-12-12T21:54:31.526Z,74.21
2022-12-12T21:57:00.850Z,74.52
2022-12-12T21:59:28.194Z,76.38
2022-12-12T22:01:59.782Z,75.61
2022-12-12T22:04:27.106Z,74.81
2022-12-12T22:06:59.446Z,74.46
2022-12-12T22:09:26.570Z,74.86
2022-12-12T22:12:04.304Z,75.90
2022-12-12T22:14:32.419Z,75.80
2022-12-12T22:17:02.785Z,75.57
2022-12-12T22:19:31.675Z,75.43
2022-12-12T22:21:58.241Z,74.84
2022-12-12T22:24:26.776Z,75.28
2022-12-12T22:26:53.399Z,76.22
2022-12-12T22:29:21.460Z,75.54
2022-12-12T22:31:50.461Z,74.89
2022-12-12T22:34:20.440Z,73.78
2022-12-12T22:36:50.239Z,74.78
2022-12-12T22:39:20.705Z,75.93
2022-12-12T22:41:50.203Z,74.43
2022-12-12T22:44:19.846Z,76.01
2022-12-12T22:46:49.958Z,74.23
2022-12-12T22:49:23.851Z,72.66
2022-12-12T22:51:51.016Z,72.12
2022-12-12T22:54:19.849Z,72.14
2022-12-12T22:56:46.327Z,70.98
2022-12-12T22:59:15.621Z,71.22
2022-12-12T23:01:43.166Z,71.13
2022-12-12T23:04:15.208Z,71.62
2022-12-12T23:06:44.567Z,73.01
2022-12-12T23:09:18.801Z,73.87
2022-12-12T23:11:48.939Z,74.34
2022-12-12T23:14:20.029Z,74.30
2022-12-12T23:16:49.205Z,74.56
2022-12-12T23:19:18.896Z,76.81
2022-12-12T23:21:47.135Z,76.82
2022-12-12T23:24:20.345Z,78.01
2022-12-12T23:26:53.696Z,77.34
2022-12-12T23:29:22.033Z,75.41
2022-12-12T23:31:50.603Z,74.82
2022-12-12T23:34:23.428Z,73.73
2022-12-12T23:36:54.578Z,73.07
2022-12-12T23:39:22.323Z,72.88
2022-12-12T23:41:49.068Z,73.17
2022-12-12T23:44:18.398Z,73.50
2022-12-12T23:46:45.636Z,74.89
2022-12-12T23:49:12.185Z,74.06
2022-12-12T23:51:42.980Z,73.55
2022-12-12T23:54:12.331Z,74.02
2022-12-12T23:56:40.121Z,75.51
2022-12-12T23:59:07.209Z,76.83
